Time;durP1;ratioP1;P1;durP2;ratioP2;P2;SDS_P1;SDS_P2;PMS_P1;PMS_P2;Temp;Humidity;BMP_temperature;BMP_pressure;BME280_temperature;BME280_humidity;BME280_pressure;Samples;Min_cycle;Max_cycle;Signal;HPM_P1;HPM_P2
2021/09/29 09:47:41;;;;;;;10.15;1.75;;;15.30;99.90;;;;;;12039003;28;20578;-67
2021/09/29 09:53:31;;;;;;;10.60;1.67;;;16.00;99.90;;;;;;12032951;28;20535;-67
2021/09/29 09:59:18;;;;;;;7.65;1.20;;;16.10;99.90;;;;;;12042681;28;20396;-67
2021/09/29 10:05:11;;;;;;;6.40;1.42;;;16.30;99.90;;;;;;12040429;28;20110;-67
2021/09/29 10:11:05;;;;;;;10.10;1.10;;;16.10;99.90;;;;;;12088885;27;20105;-67
2021/09/29 10:29:12;;;;;;;11.90;1.00;;;16.60;99.90;;;;;;12042678;28;20067;-66
2021/09/29 10:35:24;;;;;;;8.02;1.00;;;16.40;99.90;;;;;;12019986;28;20063;-67
2021/09/29 10:41:24;;;;;;;13.52;1.20;;;16.50;99.90;;;;;;12059385;27;21292;-67
2021/09/29 10:47:16;;;;;;;7.93;1.60;;;16.30;99.90;;;;;;12054603;28;20078;-68
2021/09/29 11:29:50;;;;;;;6.50;1.05;;;16.70;99.90;;;;;;12005211;28;20052;-67
2021/09/29 11:35:49;;;;;;;8.68;1.42;;;16.80;99.90;;;;;;11987135;28;21520;-67
2021/09/29 12:12:21;;;;;;;4.88;1.00;;;15.20;99.90;;;;;;12023162;28;20045;-67
2021/09/29 12:18:11;;;;;;;4.90;1.02;;;15.20;99.90;;;;;;12046473;28;20055;-67
2021/09/29 12:23:59;;;;;;;3.30;1.23;;;15.30;99.90;;;;;;12040262;28;20044;-67
2021/09/29 12:29:51;;;;;;;6.25;1.10;;;15.30;99.90;;;;;;12012295;28;21412;-68
2021/09/29 12:35:43;;;;;;;1.40;0.80;;;15.50;99.90;;;;;;12015721;28;20053;-68
2021/09/29 12:41:47;;;;;;;6.28;1.40;;;15.70;99.90;;;;;;12004252;28;20618;-68
2021/09/29 12:47:42;;;;;;;8.23;1.13;;;16.00;99.90;;;;;;12047099;28;20037;-68
2021/09/29 12:53:34;;;;;;;5.50;0.85;;;16.20;99.90;;;;;;12058447;28;20056;-68
2021/09/29 12:59:21;;;;;;;4.00;1.30;;;16.70;99.90;;;;;;12046734;28;20041;-68
2021/09/29 13:05:10;;;;;;;7.15;1.00;;;17.00;99.90;;;;;;12040385;28;20043;-69
2021/09/29 13:10:59;;;;;;;4.32;0.77;;;17.30;99.90;;;;;;12013518;28;20041;-68
2021/09/29 13:16:46;;;;;;;4.18;0.63;;;17.70;99.90;;;;;;12002941;28;20072;-68
2021/09/29 13:22:36;;;;;;;2.83;0.50;;;16.90;99.90;;;;;;12015174;28;20119;-69
2021/09/29 13:40:30;;;;;;;10.05;1.30;;;17.70;99.90;;;;;;12057324;28;20111;-69
2021/09/29 13:46:17;;;;;;;8.35;1.30;;;17.70;99.90;;;;;;12014789;28;20052;-69
2021/09/29 13:52:06;;;;;;;6.20;1.10;;;17.50;99.90;;;;;;12011752;28;20061;-69
2021/09/29 13:57:59;;;;;;;4.25;0.88;;;17.60;99.90;;;;;;12015188;28;20061;-69
2021/09/29 14:41:32;;;;;;;5.35;0.90;;;17.50;99.90;;;;;;11819618;28;20419;-69
2021/09/29 14:47:21;;;;;;;6.00;0.90;;;17.30;99.90;;;;;;11842094;28;20050;-68
2021/09/29 14:53:11;;;;;;;4.88;1.00;;;17.30;99.90;;;;;;11837295;28;20043;-69
2021/09/29 14:59:04;;;;;;;6.95;1.00;;;17.40;99.90;;;;;;11797561;28;20141;-68
2021/09/29 15:04:51;;;;;;;4.22;1.17;;;17.20;99.90;;;;;;11816751;28;20431;-68
2021/09/29 15:10:42;;;;;;;6.47;1.02;;;17.70;99.90;;;;;;11935385;28;20183;-68
2021/09/29 15:16:57;;;;;;;5.72;0.85;;;17.50;99.10;;;;;;11939076;28;20518;-68
2021/09/29 15:47:07;;;;;;;4.65;0.90;;;17.80;98.40;;;;;;12037341;28;20045;-68
2021/09/29 15:53:15;;;;;;;3.30;1.00;;;17.90;95.40;;;;;;12023427;28;20053;-67
2021/09/29 15:59:10;;;;;;;3.50;0.90;;;17.60;95.80;;;;;;12017580;28;20045;-67
2021/09/29 16:05:07;;;;;;;5.63;1.20;;;17.70;95.60;;;;;;12017958;28;20417;-68
2021/09/29 16:24:02;;;;;;;11.55;1.48;;;17.70;96.40;;;;;;11697343;28;20078;-67
2021/09/29 16:36:14;;;;;;;7.70;1.63;;;18.30;96.50;;;;;;11619067;29;20115;-67
2021/09/29 16:42:01;;;;;;;4.30;0.95;;;18.30;96.50;;;;;;11705852;29;20505;-67
2021/09/29 16:47:57;;;;;;;5.85;1.40;;;18.20;97.00;;;;;;11677582;28;20430;-67
2021/09/29 16:53:48;;;;;;;8.13;1.67;;;18.20;97.90;;;;;;11804017;28;20646;-66
2021/09/29 17:05:47;;;;;;;7.13;1.30;;;18.30;97.50;;;;;;12012721;28;20052;-67
2021/09/29 17:11:43;;;;;;;7.97;1.40;;;17.90;98.40;;;;;;12014983;28;20059;-66
2021/09/29 17:17:32;;;;;;;4.82;1.00;;;17.50;98.30;;;;;;12016484;28;20552;-67
2021/09/29 17:23:21;;;;;;;6.70;1.25;;;17.00;99.00;;;;;;11995696;28;20132;-68
2021/09/29 17:29:10;;;;;;;9.07;1.25;;;16.90;99.90;;;;;;12015127;28;20122;-68
2021/09/29 17:35:02;;;;;;;8.18;1.58;;;16.70;99.90;;;;;;12003035;28;20056;-68
2021/09/29 17:48:01;;;;;;;9.75;1.40;;;16.70;99.90;;;;;;12017243;28;20210;-68
2021/09/29 17:53:15;;;;;;;9.13;1.70;;;16.70;99.90;;;;;;12013708;28;20060;-68
2021/09/29 17:59:03;;;;;;;5.75;1.38;;;16.70;99.90;;;;;;11998694;28;20127;-68
2021/09/29 18:04:50;;;;;;;9.90;1.67;;;16.50;99.90;;;;;;11996896;28;20045;-68
2021/09/29 18:10:40;;;;;;;7.00;1.77;;;16.40;99.90;;;;;;12018249;28;20532;-68
2021/09/29 18:16:29;;;;;;;6.50;1.63;;;16.30;99.90;;;;;;12049495;28;20041;-68
2021/09/29 18:22:16;;;;;;;3.20;1.00;;;16.30;99.90;;;;;;12039539;28;20071;-67
2021/09/29 18:28:05;;;;;;;7.68;1.30;;;16.20;99.90;;;;;;12010981;28;20063;-67
2021/09/29 18:33:56;;;;;;;10.75;1.50;;;16.20;99.90;;;;;;12024715;28;20048;-67
2021/09/29 18:39:51;;;;;;;6.40;1.58;;;16.10;99.90;;;;;;12026705;28;20061;-67
2021/09/29 18:45:39;;;;;;;11.23;2.40;;;16.00;99.90;;;;;;12042058;28;20045;-67
2021/09/29 18:51:27;;;;;;;10.57;1.88;;;16.00;99.90;;;;;;12065917;28;20053;-69
2021/09/29 19:09:38;;;;;;;11.98;1.88;;;15.80;99.90;;;;;;12039536;28;20044;-69
2021/09/29 19:21:31;;;;;;;7.30;1.80;;;15.70;99.90;;;;;;12004624;28;20474;-71
2021/09/29 19:27:36;;;;;;;9.57;1.95;;;15.60;99.90;;;;;;11928680;28;20053;-71
2021/09/29 19:33:26;;;;;;;6.40;1.77;;;15.50;99.90;;;;;;11910321;28;20057;-70
2021/09/29 19:39:18;;;;;;;9.60;2.20;;;15.40;99.90;;;;;;11913762;28;20037;-70
2021/09/29 19:45:35;;;;;;;10.75;2.85;;;15.40;99.90;;;;;;11954784;28;20041;-71
2021/09/29 20:10:40;;;;;;;7.30;2.42;;;15.30;99.90;;;;;;11968940;28;20048;-70
2021/09/29 20:16:29;;;;;;;8.68;2.70;;;15.30;99.90;;;;;;11937002;28;24050;-70
2021/09/29 20:22:18;;;;;;;6.15;1.60;;;15.20;99.90;;;;;;11943878;28;20140;-73
